createdAt,value
2023-02-24T00:02:06.142Z,97466.95
2023-02-24T00:04:39.838Z,97461.73
2023-02-24T00:07:10.680Z,97460.55
2023-02-24T00:09:39.486Z,97459.61
2023-02-24T00:12:10.677Z,97456.44
2023-02-24T00:14:41.210Z,97453.92
2023-02-24T00:17:10.815Z,97456.44
2023-02-24T00:19:39.011Z,97457.33
2023-02-24T00:22:08.690Z,97452.83
2023-02-24T00:24:36.875Z,97453.59
2023-02-24T00:27:12.226Z,97446.67
2023-02-24T00:29:42.179Z,97446.52
2023-02-24T00:32:13.608Z,97444.45
2023-02-24T00:34:43.425Z,97439.58
2023-02-24T00:37:12.368Z,97435.19
2023-02-24T00:39:41.806Z,97435.02
2023-02-24T00:42:12.050Z,97428.86
2023-02-24T00:44:49.778Z,97427.94
2023-02-24T00:47:18.011Z,97424.06
2023-02-24T00:49:46.569Z,97423.14
2023-02-24T00:52:20.055Z,97421.73
2023-02-24T00:54:49.872Z,97414.11
2023-02-24T00:57:20.579Z,97415.30
2023-02-24T00:59:51.038Z,97417.20
2023-02-24T01:02:20.426Z,97412.64
2023-02-24T01:04:50.008Z,97414.16
2023-02-24T01:07:18.336Z,97415.52
2023-02-24T01:09:49.963Z,97416.21
2023-02-24T01:12:36.368Z,97411.60
2023-02-24T01:15:06.975Z,97409.54
2023-02-24T01:17:37.427Z,97407.70
2023-02-24T01:20:17.020Z,97410.81
2023-02-24T01:22:53.446Z,97402.23
2023-02-24T01:25:22.562Z,97396.41
2023-02-24T01:27:50.867Z,97398.21
2023-02-24T01:30:18.993Z,97393.95
2023-02-24T01:32:47.581Z,97395.95
2023-02-24T01:35:16.603Z,97392.35
2023-02-24T01:37:45.907Z,97385.44
2023-02-24T01:40:21.181Z,97386.64
2023-02-24T01:42:50.294Z,97381.27
2023-02-24T01:45:22.025Z,97381.46
2023-02-24T01:47:52.060Z,97373.48
2023-02-24T01:50:23.479Z,97372.84
2023-02-24T01:52:58.448Z,97371.95
2023-02-24T01:55:32.424Z,97368.64
2023-02-24T01:58:05.134Z,97366.61
2023-02-24T02:00:33.416Z,97364.44
2023-02-24T02:03:08.346Z,97365.52
2023-02-24T02:05:39.164Z,97367.18
2023-02-24T02:08:09.332Z,97362.05
2023-02-24T02:10:40.944Z,97362.23
2023-02-24T02:13:09.128Z,97361.83
2023-02-24T02:15:47.952Z,97360.40
2023-02-24T02:19:02.615Z,97356.23
2023-02-24T02:22:17.607Z,97356.86
2023-02-24T02:24:51.262Z,97356.30
2023-02-24T02:27:21.174Z,97357.24
2023-02-24T02:30:31.376Z,97355.30
2023-02-24T02:33:38.532Z,97357.98
2023-02-24T02:36:17.678Z,97355.27
2023-02-24T02:38:57.551Z,97352.17
2023-02-24T02:41:45.144Z,97355.92
2023-02-24T02:44:22.643Z,97349.50
2023-02-24T02:47:01.665Z,97348.86
2023-02-24T02:49:36.455Z,97349.35
2023-02-24T02:52:17.927Z,97346.19
2023-02-24T02:54:50.725Z,97348.30
2023-02-24T02:57:29.640Z,97351.33
2023-02-24T03:00:10.170Z,97348.45
2023-02-24T03:02:45.141Z,97346.80
2023-02-24T03:05:20.401Z,97342.63
2023-02-24T03:07:56.201Z,97342.75
2023-02-24T03:10:32.888Z,97342.56
2023-02-24T03:13:13.373Z,97343.92
2023-02-24T03:15:44.895Z,97347.42
2023-02-24T03:18:29.224Z,97349.05
2023-02-24T03:21:29.107Z,97344.13
2023-02-24T03:23:57.809Z,97344.55
2023-02-24T03:27:01.505Z,97345.66
2023-02-24T03:29:50.101Z,97340.86
2023-02-24T03:32:20.476Z,97338.99
2023-02-24T03:34:57.023Z,97340.99
2023-02-24T03:37:28.182Z,97341.16
2023-02-24T03:39:59.494Z,97338.05
2023-02-24T03:42:32.775Z,97339.38
2023-02-24T03:45:02.155Z,97334.58
2023-02-24T03:47:32.874Z,97332.08
2023-02-24T03:50:01.448Z,97332.76
2023-02-24T03:53:08.994Z,97331.95
2023-02-24T03:55:43.947Z,97331.38
2023-02-24T03:58:38.771Z,97327.23
2023-02-24T04:01:19.635Z,97321.18
2023-02-24T04:04:03.696Z,97315.83
2023-02-24T04:06:49.945Z,97310.95
2023-02-24T04:09:36.380Z,97307.44
2023-02-24T04:12:20.109Z,97306.05
2023-02-24T04:15:16.351Z,97308.41
2023-02-24T04:17:49.025Z,97312.14
2023-02-24T04:20:21.029Z,97308.57
2023-02-24T04:23:02.894Z,97311.52
2023-02-24T04:25:32.616Z,97308.77
2023-02-24T04:28:03.264Z,97307.48
2023-02-24T04:30:36.411Z,97304.94
2023-02-24T04:33:04.933Z,97303.16
2023-02-24T04:35:34.219Z,97302.00
2023-02-24T04:38:02.269Z,97302.56
2023-02-24T04:40:31.268Z,97305.45
2023-02-24T04:42:59.641Z,97303.68
2023-02-24T04:45:30.164Z,97303.33
2023-02-24T04:48:03.379Z,97309.73
2023-02-24T04:50:35.465Z,97311.92
2023-02-24T04:53:10.873Z,97309.14
2023-02-24T04:55:43.748Z,97307.03
2023-02-24T04:58:14.166Z,97307.55
2023-02-24T05:00:42.452Z,97312.13
2023-02-24T05:03:12.484Z,97312.50
2023-02-24T05:05:43.044Z,97310.11
2023-02-24T05:08:11.481Z,97307.30
2023-02-24T05:10:44.795Z,97310.20
2023-02-24T05:13:16.393Z,97306.42
2023-02-24T05:15:46.113Z,97301.67
2023-02-24T05:18:20.409Z,97298.02
2023-02-24T05:21:12.528Z,97298.77
2023-02-24T05:23:45.794Z,97299.06
2023-02-24T05:26:17.281Z,97297.25
2023-02-24T05:28:49.549Z,97293.69
2023-02-24T05:31:24.322Z,97294.07
2023-02-24T05:33:55.001Z,97294.30
2023-02-24T05:36:24.473Z,97290.33
2023-02-24T05:38:58.011Z,97288.39
2023-02-24T05:41:35.993Z,97286.53
2023-02-24T05:44:10.955Z,97287.86
2023-02-24T05:46:44.717Z,97286.52
2023-02-24T05:49:20.646Z,97287.59
2023-02-24T05:51:56.393Z,97293.48
2023-02-24T05:54:34.002Z,97293.68
2023-02-24T05:57:05.428Z,97290.91
2023-02-24T05:59:34.018Z,97291.40
2023-02-24T06:02:09.415Z,97289.25
2023-02-24T06:04:40.392Z,97289.14
2023-02-24T06:07:19.244Z,97286.88
2023-02-24T06:09:53.927Z,97283.00
2023-02-24T06:12:25.605Z,97281.50
2023-02-24T06:14:54.301Z,97278.48
2023-02-24T06:17:23.103Z,97275.92
2023-02-24T06:19:52.948Z,97274.31
2023-02-24T06:22:23.528Z,97272.86
2023-02-24T06:24:54.195Z,97270.11
2023-02-24T06:27:25.037Z,97269.92
2023-02-24T06:29:55.046Z,97266.52
2023-02-24T06:32:26.106Z,97263.30
2023-02-24T06:34:54.749Z,97265.35
2023-02-24T06:37:23.435Z,97264.14
2023-02-24T06:39:51.751Z,97265.36
2023-02-24T06:42:20.079Z,97263.23
2023-02-24T06:44:49.114Z,97262.61
2023-02-24T06:47:18.364Z,97261.67
2023-02-24T06:49:48.265Z,97260.77
2023-02-24T06:52:19.178Z,97256.51
2023-02-24T06:54:48.690Z,97258.56
2023-02-24T06:57:17.802Z,97261.35
2023-02-24T06:59:46.362Z,97264.77
2023-02-24T07:02:14.788Z,97270.23
2023-02-24T07:04:45.577Z,97274.86
2023-02-24T07:07:17.711Z,97273.25
2023-02-24T07:09:45.977Z,97261.80
2023-02-24T07:12:15.768Z,97256.46
2023-02-24T07:14:44.121Z,97253.23
2023-02-24T07:17:14.800Z,97249.52
2023-02-24T07:19:44.303Z,97246.45
2023-02-24T07:22:14.846Z,97241.08
2023-02-24T07:24:46.258Z,97240.23
2023-02-24T07:27:23.336Z,97233.28
2023-02-24T07:29:53.522Z,97228.89
2023-02-24T07:32:23.121Z,97224.15
2023-02-24T07:34:51.294Z,97228.00
2023-02-24T07:37:20.784Z,97231.81
2023-02-24T07:39:49.137Z,97230.80
2023-02-24T07:42:17.183Z,97230.61
2023-02-24T07:44:46.973Z,97229.27
2023-02-24T07:47:16.332Z,97226.27
2023-02-24T07:49:45.540Z,97224.42
2023-02-24T07:52:13.984Z,97222.81
2023-02-24T07:54:42.167Z,97218.71
2023-02-24T07:57:14.339Z,97217.40
2023-02-24T07:59:45.394Z,97214.39
2023-02-24T08:02:13.969Z,97213.66
2023-02-24T08:04:50.402Z,97213.73
2023-02-24T08:07:25.028Z,97212.80
2023-02-24T08:10:13.807Z,97207.50
2023-02-24T08:12:43.062Z,97205.77
2023-02-24T08:15:22.226Z,97204.84
2023-02-24T08:17:57.412Z,97203.61
2023-02-24T08:20:36.487Z,97199.11
2023-02-24T08:23:08.823Z,97194.64
2023-02-24T08:25:36.961Z,97189.56
2023-02-24T08:28:11.659Z,97188.81
2023-02-24T08:30:45.898Z,97182.75
2023-02-24T08:33:20.356Z,97176.05
2023-02-24T08:36:02.401Z,97178.33
2023-02-24T08:38:42.636Z,97176.52
2023-02-24T08:41:21.126Z,97166.45
2023-02-24T08:43:50.037Z,97164.56
2023-02-24T08:46:26.519Z,97163.92
2023-02-24T08:48:58.068Z,97166.09
2023-02-24T08:51:35.167Z,97167.15
2023-02-24T08:54:15.413Z,97164.30
2023-02-24T08:56:49.263Z,97165.79
2023-02-24T08:59:51.511Z,97164.66
2023-02-24T09:02:24.893Z,97165.94
2023-02-24T09:04:58.963Z,97159.86
2023-02-24T09:07:35.737Z,97149.90
2023-02-24T09:10:18.012Z,97150.81
2023-02-24T09:12:46.861Z,97150.41
2023-02-24T09:15:15.818Z,97144.21
2023-02-24T09:17:45.272Z,97142.48
2023-02-24T09:20:27.562Z,97136.45
2023-02-24T09:23:09.008Z,97138.70
2023-02-24T09:25:49.880Z,97134.70
2023-02-24T09:28:27.460Z,97133.29
2023-02-24T09:30:58.851Z,97130.32
2023-02-24T09:33:41.875Z,97125.19
2023-02-24T09:36:13.484Z,97123.18
2023-02-24T09:39:01.391Z,97123.80
2023-02-24T09:41:33.429Z,97121.31
2023-02-24T09:44:18.674Z,97117.14
2023-02-24T09:46:59.951Z,97116.88
2023-02-24T09:49:40.265Z,97118.23
2023-02-24T09:52:19.152Z,97110.84
2023-02-24T09:55:11.392Z,97107.59
2023-02-24T09:58:08.671Z,97105.41
2023-02-24T10:00:44.370Z,97099.78
2023-02-24T10:03:41.642Z,97098.79
2023-02-24T10:06:20.979Z,97104.95
2023-02-24T10:09:13.059Z,97102.00
2023-02-24T10:11:56.137Z,97103.02
2023-02-24T10:14:44.643Z,97098.57
2023-02-24T10:17:39.488Z,97094.41
2023-02-24T10:20:14.013Z,97086.88
2023-02-24T10:22:58.063Z,97082.72
2023-02-24T10:25:53.861Z,97070.05
2023-02-24T10:29:02.916Z,97058.99
2023-02-24T10:31:39.686Z,97053.40
2023-02-24T10:34:20.255Z,97048.91
2023-02-24T10:36:50.688Z,97044.78
2023-02-24T10:39:25.987Z,97042.34
2023-02-24T10:41:58.107Z,97042.35
2023-02-24T10:44:36.547Z,97040.29
2023-02-24T10:47:14.353Z,97036.95
2023-02-24T10:49:59.487Z,97030.12
2023-02-24T10:53:11.478Z,97023.59
2023-02-24T10:55:47.559Z,97012.75
2023-02-24T10:58:28.054Z,97009.04
2023-02-24T11:01:13.335Z,97003.61
2023-02-24T11:04:01.558Z,96999.64
2023-02-24T11:06:35.089Z,96992.69
2023-02-24T11:09:23.356Z,96991.66
2023-02-24T11:12:09.841Z,96988.61
2023-02-24T11:15:09.038Z,96979.13
2023-02-24T11:17:45.339Z,96971.77
2023-02-24T11:20:17.457Z,96963.70
2023-02-24T11:22:49.266Z,96953.41
2023-02-24T11:25:36.968Z,96945.67
2023-02-24T11:28:07.337Z,96942.33
2023-02-24T11:30:52.586Z,96940.48
2023-02-24T11:33:52.445Z,96933.88
2023-02-24T11:36:54.527Z,96931.18
2023-02-24T11:39:35.621Z,96923.17
2023-02-24T11:42:12.673Z,96911.71
2023-02-24T11:44:48.253Z,96904.20
2023-02-24T11:47:22.474Z,96896.39
2023-02-24T11:49:55.386Z,96894.38
2023-02-24T11:52:33.993Z,96894.05
2023-02-24T11:55:05.614Z,96890.54
2023-02-24T11:57:43.454Z,96883.98
2023-02-24T12:00:28.024Z,96875.73
2023-02-24T12:03:13.235Z,96876.98
2023-02-24T12:05:49.074Z,96871.77
2023-02-24T12:08:31.243Z,96867.96
2023-02-24T12:11:21.711Z,96861.81
2023-02-24T12:14:06.975Z,96864.82
2023-02-24T12:16:46.043Z,96859.93
2023-02-24T12:19:30.246Z,96856.81
2023-02-24T12:22:06.246Z,96852.44
2023-02-24T12:24:36.602Z,96845.36
2023-02-24T12:27:23.041Z,96842.67
2023-02-24T12:30:23.193Z,96840.05
2023-02-24T12:33:08.325Z,96835.01
2023-02-24T12:35:52.534Z,96827.55
2023-02-24T12:38:33.036Z,96822.08
2023-02-24T12:41:29.874Z,96817.81
2023-02-24T12:44:01.642Z,96813.61
2023-02-24T12:46:37.806Z,96807.89
2023-02-24T12:49:35.989Z,96804.40
2023-02-24T12:52:22.622Z,96802.28
2023-02-24T12:55:11.472Z,96799.34
2023-02-24T12:57:57.941Z,96795.08
2023-02-24T13:00:31.635Z,96791.09
2023-02-24T13:03:03.801Z,96787.27
2023-02-24T13:05:41.713Z,96783.16
2023-02-24T13:08:12.790Z,96780.36
2023-02-24T13:10:47.268Z,96770.23
2023-02-24T13:13:19.536Z,96767.80
2023-02-24T13:16:00.324Z,96771.27
2023-02-24T13:18:32.626Z,96769.56
2023-02-24T13:21:05.450Z,96765.50
2023-02-24T13:23:34.556Z,96760.42
2023-02-24T13:26:04.149Z,96762.23
2023-02-24T13:28:36.480Z,96765.06
2023-02-24T13:31:06.468Z,96767.98
2023-02-24T13:33:44.271Z,96765.66
2023-02-24T13:36:17.215Z,96764.63
2023-02-24T13:39:07.843Z,96761.46
2023-02-24T13:41:40.886Z,96762.25
2023-02-24T13:44:28.272Z,96759.55
2023-02-24T13:47:17.508Z,96759.48
2023-02-24T13:49:59.011Z,96759.83
2023-02-24T13:52:36.491Z,96757.90
2023-02-24T13:55:22.735Z,96761.11
2023-02-24T13:58:15.292Z,96762.43
2023-02-24T14:00:52.685Z,96756.52
2023-02-24T14:03:24.971Z,96756.83
2023-02-24T14:05:53.831Z,96751.56
2023-02-24T14:08:29.789Z,96749.69
2023-02-24T14:11:00.545Z,96753.27
2023-02-24T14:13:34.231Z,96754.88
2023-02-24T14:16:08.417Z,96755.15
2023-02-24T14:18:37.681Z,96758.83
2023-02-24T14:21:06.128Z,96758.29
2023-02-24T14:23:35.420Z,96758.10
2023-02-24T14:26:12.255Z,96758.64
2023-02-24T14:28:42.132Z,96756.75
2023-02-24T14:31:16.122Z,96753.23
2023-02-24T14:33:45.533Z,96752.89
2023-02-24T14:36:24.925Z,96750.14
2023-02-24T14:39:04.432Z,96745.59
2023-02-24T14:41:32.615Z,96744.45
2023-02-24T14:44:14.870Z,96743.62
2023-02-24T14:46:54.198Z,96739.06
2023-02-24T14:49:26.820Z,96734.40
2023-02-24T14:52:03.482Z,96733.39
2023-02-24T14:54:34.326Z,96731.98
2023-02-24T14:57:03.294Z,96737.69
2023-02-24T14:59:40.012Z,96739.17
2023-02-24T15:02:19.654Z,96733.59
2023-02-24T15:04:48.515Z,96729.98
2023-02-24T15:07:21.483Z,96729.57
2023-02-24T15:09:52.059Z,96729.92
2023-02-24T15:12:32.544Z,96726.77
2023-02-24T15:15:21.555Z,96721.88
2023-02-24T15:18:04.485Z,96715.84
2023-02-24T15:20:37.442Z,96709.40
2023-02-24T15:23:06.045Z,96703.92
2023-02-24T15:25:46.317Z,96704.50
2023-02-24T15:28:32.587Z,96706.96
2023-02-24T15:31:16.415Z,96708.73
2023-02-24T15:33:54.818Z,96708.28
2023-02-24T15:36:25.791Z,96708.19
2023-02-24T15:39:06.973Z,96707.02
2023-02-24T15:41:45.987Z,96702.93
2023-02-24T15:44:30.941Z,96695.84
2023-02-24T15:47:12.358Z,96696.41
2023-02-24T15:49:40.403Z,96693.15
2023-02-24T15:52:10.092Z,96698.22
2023-02-24T15:54:39.615Z,96702.89
2023-02-24T15:57:12.544Z,96700.36
2023-02-24T15:59:41.397Z,96699.83
2023-02-24T16:02:29.882Z,96698.10
2023-02-24T16:04:57.918Z,96689.46
2023-02-24T16:07:35.200Z,96685.25
2023-02-24T16:10:04.509Z,96686.54
2023-02-24T16:12:43.067Z,96684.77
2023-02-24T16:15:19.389Z,96687.28
2023-02-24T16:17:47.557Z,96686.79
2023-02-24T16:20:27.553Z,96684.16
2023-02-24T16:22:57.225Z,96689.41
2023-02-24T16:25:26.924Z,96693.66
2023-02-24T16:27:58.478Z,96693.91
2023-02-24T16:30:30.604Z,96689.41
2023-02-24T16:33:01.030Z,96687.48
2023-02-24T16:35:29.454Z,96687.29
2023-02-24T16:37:57.621Z,96685.69
2023-02-24T16:40:33.816Z,96684.02
2023-02-24T16:43:01.953Z,96682.06
2023-02-24T16:45:31.738Z,96678.95
2023-02-24T16:48:02.567Z,96680.77
2023-02-24T16:50:40.195Z,96681.39
2023-02-24T16:53:12.627Z,96686.15
2023-02-24T16:55:41.149Z,96689.16
2023-02-24T16:58:11.257Z,96694.88
2023-02-24T17:00:41.466Z,96694.45
2023-02-24T17:03:25.118Z,96696.11
2023-02-24T17:05:54.181Z,96691.08
2023-02-24T17:08:23.201Z,96685.68
2023-02-24T17:10:52.632Z,96687.05
2023-02-24T17:13:21.883Z,96680.64
2023-02-24T17:15:57.349Z,96672.96
2023-02-24T17:18:26.993Z,96671.00
2023-02-24T17:20:55.540Z,96665.88
2023-02-24T17:23:24.043Z,96661.17
2023-02-24T17:25:55.655Z,96659.02
2023-02-24T17:28:24.369Z,96659.41
2023-02-24T17:30:52.630Z,96656.54
2023-02-24T17:33:21.133Z,96660.46
2023-02-24T17:35:49.410Z,96661.07
2023-02-24T17:38:21.563Z,96659.53
2023-02-24T17:40:49.747Z,96657.79
2023-02-24T17:43:18.111Z,96653.48
2023-02-24T17:45:47.505Z,96657.66
2023-02-24T17:48:16.512Z,96659.96
2023-02-24T17:50:45.739Z,96657.35
2023-02-24T17:53:13.988Z,96653.08
2023-02-24T17:55:55.740Z,96647.69
2023-02-24T17:58:30.095Z,96644.80
2023-02-24T18:00:58.309Z,96644.09
2023-02-24T18:03:26.709Z,96644.02
2023-02-24T18:06:03.405Z,96640.88
2023-02-24T18:08:33.639Z,96638.76
2023-02-24T18:11:02.567Z,96634.11
2023-02-24T18:13:31.675Z,96632.91
2023-02-24T18:16:00.506Z,96629.14
2023-02-24T18:18:30.476Z,96623.64
2023-02-24T18:21:02.963Z,96622.84
2023-02-24T18:23:32.517Z,96622.23
2023-02-24T18:26:02.723Z,96617.46
2023-02-24T18:28:32.028Z,96617.66
2023-02-24T18:31:01.380Z,96617.39
2023-02-24T18:33:29.645Z,96617.23
2023-02-24T18:35:59.635Z,96614.65
2023-02-24T18:38:28.785Z,96612.44
2023-02-24T18:41:05.495Z,96610.10
2023-02-24T18:43:35.596Z,96610.62
2023-02-24T18:46:06.603Z,96609.23
2023-02-24T18:48:35.744Z,96608.41
2023-02-24T18:51:04.420Z,96611.46
2023-02-24T18:53:36.964Z,96609.33
2023-02-24T18:56:20.252Z,96604.46
2023-02-24T18:58:55.074Z,96603.58
2023-02-24T19:01:32.113Z,96598.16
2023-02-24T19:04:04.573Z,96599.79
2023-02-24T19:06:33.641Z,96596.30
2023-02-24T19:09:11.417Z,96591.27
2023-02-24T19:11:40.894Z,96590.81
2023-02-24T19:14:11.976Z,96589.73
2023-02-24T19:16:41.411Z,96587.02
2023-02-24T19:19:13.862Z,96585.53
2023-02-24T19:21:45.591Z,96581.80
2023-02-24T19:24:14.481Z,96583.30
2023-02-24T19:26:44.542Z,96584.08
2023-02-24T19:29:12.577Z,96582.89
2023-02-24T19:31:40.915Z,96588.74
2023-02-24T19:34:12.408Z,96585.43
2023-02-24T19:36:41.376Z,96579.65
2023-02-24T19:39:12.526Z,96576.17
2023-02-24T19:41:41.362Z,96573.30
2023-02-24T19:44:10.452Z,96568.71
2023-02-24T19:46:39.197Z,96570.77
2023-02-24T19:49:07.287Z,96565.76
2023-02-24T19:51:35.848Z,96561.15
2023-02-24T19:54:06.342Z,96560.39
2023-02-24T19:56:36.714Z,96557.90
2023-02-24T19:59:08.146Z,96553.77
2023-02-24T20:01:36.579Z,96551.62
2023-02-24T20:04:05.666Z,96555.02
2023-02-24T20:06:36.451Z,96547.45
2023-02-24T20:09:09.645Z,96542.52
2023-02-24T20:11:39.483Z,96541.80
2023-02-24T20:14:09.081Z,96533.66
2023-02-24T20:16:39.155Z,96528.75
2023-02-24T20:19:09.275Z,96526.50
2023-02-24T20:21:38.825Z,96523.33
2023-02-24T20:24:12.547Z,96518.26
2023-02-24T20:26:43.554Z,96515.04
2023-02-24T20:29:12.465Z,96517.69
2023-02-24T20:31:41.427Z,96511.33
2023-02-24T20:34:10.806Z,96499.85
2023-02-24T20:36:40.910Z,96497.76
2023-02-24T20:39:12.522Z,96500.41
2023-02-24T20:41:42.141Z,96499.73
2023-02-24T20:44:11.948Z,96490.92
2023-02-24T20:46:40.215Z,96485.19
2023-02-24T20:49:11.095Z,96484.30
2023-02-24T20:51:39.299Z,96484.73
2023-02-24T20:54:09.350Z,96486.15
2023-02-24T20:56:39.935Z,96484.48
2023-02-24T20:59:13.955Z,96482.27
2023-02-24T21:01:46.802Z,96481.83
2023-02-24T21:04:17.963Z,96473.19
2023-02-24T21:06:48.142Z,96469.26
2023-02-24T21:09:16.470Z,96470.44
2023-02-24T21:11:44.915Z,96472.83
2023-02-24T21:14:15.704Z,96464.22
2023-02-24T21:16:46.476Z,96455.73
2023-02-24T21:19:15.212Z,96454.20
2023-02-24T21:21:43.683Z,96452.91
2023-02-24T21:24:11.800Z,96454.41
2023-02-24T21:26:39.935Z,96450.52
2023-02-24T21:29:08.308Z,96451.73
2023-02-24T21:31:36.413Z,96449.27
2023-02-24T21:34:04.494Z,96451.86
2023-02-24T21:36:32.938Z,96453.30
2023-02-24T21:39:01.104Z,96446.73
2023-02-24T21:41:29.439Z,96437.24
2023-02-24T21:44:00.788Z,96437.54
2023-02-24T21:46:29.359Z,96439.46
2023-02-24T21:48:58.898Z,96436.99
2023-02-24T21:51:29.452Z,96431.75
2023-02-24T21:53:58.230Z,96423.70
2023-02-24T21:56:30.438Z,96426.36
2023-02-24T21:58:58.521Z,96428.91
2023-02-24T22:01:45.542Z,96427.86
2023-02-24T22:04:16.619Z,96423.86
2023-02-24T22:06:45.304Z,96415.52
2023-02-24T22:09:20.933Z,96418.47
2023-02-24T22:11:50.122Z,96416.62
2023-02-24T22:14:18.852Z,96419.91
2023-02-24T22:16:47.319Z,96413.55
2023-02-24T22:19:15.457Z,96411.65
2023-02-24T22:21:43.620Z,96408.87
2023-02-24T22:24:16.715Z,96406.85
2023-02-24T22:26:46.084Z,96410.25
2023-02-24T22:29:14.226Z,96408.83
2023-02-24T22:31:44.173Z,96409.81
2023-02-24T22:34:14.655Z,96412.42
2023-02-24T22:36:42.965Z,96410.77
2023-02-24T22:39:11.056Z,96406.69
2023-02-24T22:41:39.201Z,96414.67
2023-02-24T22:44:07.319Z,96414.46
2023-02-24T22:46:37.674Z,96423.00
2023-02-24T22:49:06.507Z,96430.11
2023-02-24T22:51:35.346Z,96434.48
2023-02-24T22:54:04.674Z,96439.38
2023-02-24T22:56:33.200Z,96438.35
2023-02-24T22:59:01.445Z,96431.19
2023-02-24T23:01:36.266Z,96427.90
2023-02-24T23:04:12.978Z,96432.77
2023-02-24T23:06:41.828Z,96425.30
2023-02-24T23:09:10.756Z,96412.30
2023-02-24T23:11:41.436Z,96402.88
2023-02-24T23:14:13.814Z,96385.63
2023-02-24T23:16:44.754Z,96360.30
2023-02-24T23:19:18.985Z,96355.16
2023-02-24T23:21:50.995Z,96348.61
2023-02-24T23:24:21.102Z,96337.61
2023-02-24T23:26:54.178Z,96334.59
2023-02-24T23:29:24.040Z,96328.42
2023-02-24T23:31:53.310Z,96323.32
2023-02-24T23:34:21.709Z,96327.34
2023-02-24T23:36:49.998Z,96332.86
2023-02-24T23:39:23.195Z,96340.20
2023-02-24T23:41:57.562Z,96334.73
2023-02-24T23:44:26.091Z,96332.32
2023-02-24T23:46:55.034Z,96334.64
2023-02-24T23:49:23.198Z,96330.89
2023-02-24T23:51:51.489Z,96325.69
2023-02-24T23:54:20.529Z,96321.05
2023-02-24T23:56:49.228Z,96320.30
2023-02-24T23:59:17.237Z,96316.58
